New York, New York
Traffic Map
Current Weather Conditions
New York, New York
Clear
Clear
30°
Feels Like: 30°
Wind Chill: 30° Ceiling: Unl
Heat Index: 30° Visibility: 8mi
Dew Point: Wind: 7mph
Humidity: 23% Direction: ° ()
Pressure: 30.05in Gusts: 0mph
Raw Report DataKNYC 252051Z AUTO VRB06KT 8SM CLR 30/07 A3005 RMK AO2 SLP166 T03000067 56004 $
Traffic Incident Summary
Active as of:
Severity:
Category:
InformationThere was an issue retrieving the traffic information for this location. Please try a different location or try again shortly.
Advertisements
Track Severe Weather on mobile